Weather at Mokaria-Yamoleka Airport

Public forecast

Using degrees Celsius for public forecast. Weather courtesy of forecast.io.

Closest aviation weather report (METAR) to Mokaria-Yamoleka Airport

Report is more than 6 hours old.

Closest report is Bangoka International Airport, 157.7 nm (292.0 km) SE. Retrieved 2021/01/19 08:00 UTC (8 days ago):

FZIC 190800Z 27006KT 9999 FEW009 BKN100 25/23 Q1012 NOSIG

Closest aviation forecast (TAF) to Mokaria-Yamoleka Airport

Forecast is more than 12 hours old.

Closest forecast is Bangoka International Airport, 157.7 nm (292.0 km) SE. Retrieved 2021/01/19 12:00 UTC (8 days ago):

TAF FZIC 191100Z 1912/2018 23008KT 9999 BKN026 FEW034CB TEMPO 1914/1917 TS BECMG 1917/1919 00000KT NSC BECMG 1923/2002 2000 BR FM200700 12006KT 8000 BKN012 BECMG 2009/2011 SCT020 FEW034CB